Time;durP1;ratioP1;P1;durP2;ratioP2;P2;SDS_P1;SDS_P2;PMS_P1;PMS_P2;Temp;Humidity;BMP_temperature;BMP_pressure;BME280_temperature;BME280_humidity;BME280_pressure;Samples;Min_cycle;Max_cycle;Signal;HPM_P1;HPM_P2
2023/07/06 00:00:47;;;;;;;11.88;4.13;;;;;;;-144.73;100.00;54469.28;5035173;28;20037;-71
2023/07/06 00:03:14;;;;;;;13.20;4.35;;;;;;;-144.73;100.00;54456.97;5017804;28;20018;-71
2023/07/06 00:05:49;;;;;;;10.40;4.20;;;;;;;-144.73;100.00;54493.91;5034489;28;20026;-70
2023/07/06 00:08:16;;;;;;;8.98;3.22;;;;;;;-144.73;100.00;54485.69;5034664;28;20021;-70
2023/07/06 00:10:43;;;;;;;8.80;4.38;;;;;;;-144.73;100.00;54489.81;5034096;28;20051;-70
2023/07/06 00:13:10;;;;;;;11.05;3.95;;;;;;;-144.73;100.00;54502.13;5033771;28;20026;-70
2023/07/06 00:15:36;;;;;;;11.07;3.50;;;;;;;-144.73;100.00;54506.22;5035385;28;20029;-70
2023/07/06 00:18:03;;;;;;;14.00;4.28;;;;;;;-144.73;100.00;54456.97;5042328;28;20027;-70
2023/07/06 00:20:32;;;;;;;8.82;4.13;;;;;;;-144.73;100.00;54465.16;5018034;28;20052;-70
2023/07/06 00:23:01;;;;;;;17.60;4.30;;;;;;;-144.73;100.00;54448.75;5018698;28;20359;-70
2023/07/06 00:25:27;;;;;;;8.40;3.90;;;;;;;-144.73;100.00;54498.00;5034940;28;20116;-70
2023/07/06 00:27:54;;;;;;;8.77;4.00;;;;;;;-144.73;100.00;54463.13;5023670;28;20101;-70
2023/07/06 00:30:30;;;;;;;11.15;3.92;;;;;;;-144.73;100.00;54506.22;5017429;28;20037;-70
2023/07/06 00:32:58;;;;;;;9.20;4.05;;;;;;;-144.73;100.00;54473.38;5017922;28;20029;-70
2023/07/06 00:35:24;;;;;;;10.45;4.07;;;;;;;-144.73;100.00;54481.59;5024505;28;20060;-70
2023/07/06 00:37:51;;;;;;;12.68;3.92;;;;;;;-144.73;100.00;54469.28;5013081;28;20065;-70
2023/07/06 00:40:17;;;;;;;13.20;4.25;;;;;;;-144.73;100.00;54489.81;5019699;28;20040;-70
2023/07/06 00:42:42;;;;;;;13.90;4.72;;;;;;;-144.73;100.00;54467.22;5014879;28;20089;-70
2023/07/06 00:45:09;;;;;;;16.13;4.47;;;;;;;-144.73;100.00;54446.69;5021918;28;20029;-70
2023/07/06 00:47:42;;;;;;;21.80;5.20;;;;;;;-144.73;100.00;54465.16;5010190;28;20081;-70
2023/07/06 00:50:15;;;;;;;11.73;3.88;;;;;;;-144.73;100.00;54485.69;5017327;28;20036;-70
2023/07/06 00:52:54;;;;;;;11.30;3.80;;;;;;;-144.73;100.00;54502.13;5027947;28;20032;-70
2023/07/06 00:55:25;;;;;;;9.45;4.10;;;;;;;-144.73;100.00;54469.28;5030928;28;20108;-70
2023/07/06 00:57:55;;;;;;;10.68;4.63;;;;;;;-144.73;100.00;54510.31;5032710;28;20029;-70
2023/07/06 01:00:21;;;;;;;14.30;4.35;;;;;;;-144.73;100.00;54491.84;5023841;28;20099;-70
2023/07/06 01:02:53;;;;;;;10.02;4.28;;;;;;;-144.73;100.00;54465.16;5016326;28;20052;-70
2023/07/06 01:05:23;;;;;;;16.02;4.57;;;;;;;-144.73;100.00;54452.84;5031914;28;20029;-70
2023/07/06 01:07:51;;;;;;;16.83;4.85;;;;;;;-144.73;100.00;54495.97;5029984;28;20021;-70
2023/07/06 01:10:18;;;;;;;12.95;4.35;;;;;;;-144.73;100.00;54465.16;5024097;28;20034;-70
2023/07/06 01:12:43;;;;;;;24.48;5.68;;;;;;;-144.73;100.00;54465.16;5020896;28;20041;-70
2023/07/06 01:15:09;;;;;;;10.50;3.58;;;;;;;-144.73;100.00;54456.97;5016733;28;20518;-70
2023/07/06 01:18:00;;;;;;;12.82;4.20;;;;;;;-144.73;100.00;54522.63;5018784;28;20034;-70
2023/07/06 01:20:53;;;;;;;15.02;4.07;;;;;;;-144.73;100.00;54493.91;5024654;28;20037;-70
2023/07/06 01:23:53;;;;;;;11.82;4.45;;;;;;;-144.73;100.00;54461.06;5011078;28;20022;-69
2023/07/06 01:26:34;;;;;;;11.98;4.35;;;;;;;-144.73;100.00;54452.84;5006303;28;20084;-70
2023/07/06 01:29:03;;;;;;;18.33;4.45;;;;;;;-144.73;100.00;54514.44;5018984;28;20030;-69
2023/07/06 01:31:47;;;;;;;18.50;4.53;;;;;;;-144.73;100.00;54504.16;5017165;28;20044;-69
2023/07/06 01:34:54;;;;;;;9.80;4.05;;;;;;;-144.73;100.00;54485.69;5021931;28;20018;-70
2023/07/06 01:37:20;;;;;;;8.50;3.63;;;;;;;-144.73;100.00;54481.59;5010898;28;20044;-69
2023/07/06 01:39:45;;;;;;;19.15;4.43;;;;;;;-144.73;100.00;54477.47;5012848;28;20030;-69
2023/07/06 01:42:12;;;;;;;14.15;4.28;;;;;;;-144.73;100.00;54477.47;5030221;28;20029;-69
2023/07/06 01:44:41;;;;;;;16.63;4.22;;;;;;;-144.73;100.00;54461.06;5030214;28;20017;-70
2023/07/06 01:47:07;;;;;;;8.77;4.30;;;;;;;-144.73;100.00;54452.84;5030606;28;20053;-70
2023/07/06 01:49:33;;;;;;;15.82;4.60;;;;;;;-144.73;100.00;54461.06;5025429;28;20028;-70
2023/07/06 01:52:13;;;;;;;19.95;4.68;;;;;;;-144.73;100.00;54491.84;5031511;28;20025;-70
2023/07/06 01:54:50;;;;;;;15.73;4.45;;;;;;;-144.73;100.00;54461.06;5029853;28;20076;-70
2023/07/06 01:57:40;;;;;;;8.77;4.45;;;;;;;-144.73;100.00;54481.59;5013393;28;20072;-70
2023/07/06 02:00:10;;;;;;;11.40;4.28;;;;;;;-144.73;100.00;54506.22;5028596;28;20037;-70
2023/07/06 02:02:36;;;;;;;17.23;5.07;;;;;;;-144.73;100.00;54475.44;5029700;28;20029;-70
2023/07/06 02:05:02;;;;;;;13.32;4.53;;;;;;;-144.73;100.00;54481.59;5012695;28;20083;-70
2023/07/06 02:07:29;;;;;;;10.23;4.45;;;;;;;-144.73;100.00;54473.38;5015130;28;20025;-70
2023/07/06 02:09:54;;;;;;;20.30;4.85;;;;;;;-144.73;100.00;54465.16;5028530;28;20048;-70
2023/07/06 02:12:21;;;;;;;12.20;4.50;;;;;;;-144.73;100.00;54493.91;5030373;28;20093;-70
2023/07/06 02:14:48;;;;;;;11.80;4.68;;;;;;;-144.73;100.00;54502.13;5008853;28;20034;-70
2023/07/06 02:17:14;;;;;;;20.60;5.28;;;;;;;-144.73;100.00;54485.69;5029261;28;20021;-70
2023/07/06 02:19:39;;;;;;;15.43;5.15;;;;;;;-144.73;100.00;54456.97;5029512;28;20073;-71
2023/07/06 02:22:05;;;;;;;17.70;5.63;;;;;;;-144.73;100.00;54489.81;5010255;28;20109;-70
2023/07/06 02:24:33;;;;;;;11.30;5.15;;;;;;;-144.73;100.00;54506.22;5025359;28;20061;-70
2023/07/06 02:26:58;;;;;;;16.35;5.15;;;;;;;-144.73;100.00;54477.47;5030870;28;20022;-70
2023/07/06 02:29:24;;;;;;;17.88;5.82;;;;;;;-144.73;100.00;54475.44;5022809;28;20028;-70
2023/07/06 02:31:49;;;;;;;16.58;4.95;;;;;;;-144.73;100.00;54465.16;5023287;28;20030;-70
2023/07/06 02:34:21;;;;;;;12.05;4.95;;;;;;;-144.73;100.00;54463.13;4996211;28;20030;-70
2023/07/06 02:36:47;;;;;;;15.52;4.47;;;;;;;-144.73;100.00;54481.59;5028528;28;20040;-70
2023/07/06 02:39:12;;;;;;;22.63;5.32;;;;;;;-144.73;100.00;54477.47;5030488;28;20029;-70
2023/07/06 02:41:37;;;;;;;19.42;5.20;;;;;;;-144.73;100.00;54498.00;5029232;28;20038;-70
2023/07/06 02:44:03;;;;;;;12.30;4.60;;;;;;;-144.73;100.00;54481.59;5030037;28;20040;-70
2023/07/06 02:46:29;;;;;;;21.88;5.40;;;;;;;-144.73;100.00;54481.59;5012201;28;20061;-70
2023/07/06 02:48:55;;;;;;;14.90;4.88;;;;;;;-144.73;100.00;54465.16;5030461;28;20037;-70
2023/07/06 02:51:22;;;;;;;18.13;5.70;;;;;;;-144.73;100.00;54473.38;5019722;28;20041;-70
2023/07/06 02:53:47;;;;;;;12.15;4.90;;;;;;;-144.73;100.00;54477.47;5029701;28;20025;-70
2023/07/06 02:56:13;;;;;;;13.85;4.80;;;;;;;-144.73;100.00;54493.91;5012163;28;20036;-70
2023/07/06 02:58:38;;;;;;;17.88;4.90;;;;;;;-144.73;100.00;54487.75;5011953;28;20030;-70
2023/07/06 03:01:04;;;;;;;17.30;5.97;;;;;;;-144.73;100.00;54477.47;5011800;28;20041;-70
2023/07/06 03:03:29;;;;;;;14.77;4.93;;;;;;;-144.73;100.00;54473.38;5014823;28;20104;-70
2023/07/06 03:05:55;;;;;;;19.38;5.90;;;;;;;-144.73;100.00;54506.22;5022092;28;20115;-70
2023/07/06 03:08:20;;;;;;;12.57;5.53;;;;;;;-144.73;100.00;54493.91;5035771;28;20025;-70
2023/07/06 03:10:46;;;;;;;23.90;5.55;;;;;;;-144.73;100.00;54477.47;5032149;28;20033;-70
2023/07/06 03:13:13;;;;;;;16.23;5.90;;;;;;;-144.73;100.00;54473.38;5015036;28;20030;-70
2023/07/06 03:15:40;;;;;;;10.82;5.05;;;;;;;-144.73;100.00;54473.38;5045245;28;20521;-70
2023/07/06 03:18:06;;;;;;;11.07;5.20;;;;;;;-144.73;100.00;54461.06;5017196;28;20014;-70
2023/07/06 03:20:35;;;;;;;18.98;5.30;;;;;;;-144.73;100.00;54461.06;5012120;28;20044;-70
2023/07/06 03:23:02;;;;;;;14.85;6.30;;;;;;;-144.73;100.00;54473.38;5030130;28;20017;-71
2023/07/06 03:25:28;;;;;;;19.25;5.93;;;;;;;-144.73;100.00;54446.69;5028860;28;20048;-70
2023/07/06 03:27:54;;;;;;;12.80;6.28;;;;;;;-144.73;100.00;54473.38;5029521;28;20048;-70
2023/07/06 03:30:21;;;;;;;22.63;6.38;;;;;;;-144.73;100.00;54498.00;5010584;28;20080;-70
2023/07/06 03:32:47;;;;;;;12.02;6.28;;;;;;;-144.73;100.00;54489.81;5026613;28;20021;-71
2023/07/06 03:35:13;;;;;;;13.35;6.20;;;;;;;-144.73;100.00;54489.81;5013347;28;20478;-70
2023/07/06 03:37:42;;;;;;;18.00;6.93;;;;;;;-144.73;100.00;54481.59;5028428;28;20486;-70
2023/07/06 03:40:13;;;;;;;14.55;6.30;;;;;;;-144.73;100.00;54489.81;5011460;28;20044;-71
2023/07/06 03:42:43;;;;;;;12.98;6.28;;;;;;;-144.73;100.00;54518.53;5028969;28;20029;-70
2023/07/06 03:45:13;;;;;;;16.30;6.38;;;;;;;-144.73;100.00;54477.47;5031166;28;20045;-70
2023/07/06 03:47:39;;;;;;;21.50;7.78;;;;;;;-144.73;100.00;54448.75;5030032;28;20134;-70
2023/07/06 03:50:08;;;;;;;20.23;6.75;;;;;;;-144.73;100.00;54477.47;5020597;28;20241;-70
2023/07/06 03:52:37;;;;;;;22.65;7.32;;;;;;;-144.73;100.00;54502.13;5009893;28;20026;-71
2023/07/06 03:55:08;;;;;;;24.52;7.18;;;;;;;-144.73;100.00;54489.81;5014258;28;20034;-70
2023/07/06 03:57:34;;;;;;;19.63;7.20;;;;;;;-144.73;100.00;54473.38;5022239;28;20025;-70
2023/07/06 04:00:00;;;;;;;18.02;7.82;;;;;;;-144.73;100.00;54481.59;5014948;28;20030;-70
2023/07/06 04:02:25;;;;;;;21.70;7.43;;;;;;;-144.73;100.00;54477.47;5030958;28;20026;-71
2023/07/06 04:04:52;;;;;;;20.60;7.47;;;;;;;-144.73;100.00;54506.22;5028759;28;20033;-72
2023/07/06 04:07:18;;;;;;;16.77;7.25;;;;;;;-144.73;100.00;54469.28;4996227;28;20024;-71
2023/07/06 04:09:44;;;;;;;23.25;7.57;;;;;;;-144.73;100.00;54465.16;5040708;28;20029;-70
2023/07/06 04:12:13;;;;;;;21.10;8.68;;;;;;;-144.73;100.00;54473.38;5034856;28;20029;-70
2023/07/06 04:14:39;;;;;;;17.08;7.43;;;;;;;-144.73;100.00;54487.75;5008905;28;20037;-70
2023/07/06 04:17:07;;;;;;;19.42;8.38;;;;;;;-144.73;100.00;54508.28;5032899;28;20021;-71
2023/07/06 04:19:34;;;;;;;18.33;7.95;;;;;;;-144.73;100.00;54477.47;5010404;28;20176;-70
2023/07/06 04:22:02;;;;;;;22.23;9.13;;;;;;;-144.73;100.00;54481.59;5028554;28;20037;-70
2023/07/06 04:24:31;;;;;;;16.33;7.78;;;;;;;-144.73;100.00;54506.22;5032749;28;20029;-70
2023/07/06 04:26:59;;;;;;;22.17;8.50;;;;;;;-144.73;100.00;54514.44;5028263;28;20017;-70
2023/07/06 04:29:26;;;;;;;21.60;8.90;;;;;;;-144.73;100.00;54498.00;5028074;28;20045;-70
2023/07/06 04:31:55;;;;;;;19.73;7.90;;;;;;;-144.73;100.00;54493.91;5029675;28;20017;-70
2023/07/06 04:34:21;;;;;;;21.73;9.63;;;;;;;-144.73;100.00;54473.38;5023628;28;20047;-71
2023/07/06 04:36:47;;;;;;;18.00;8.40;;;;;;;-144.73;100.00;54510.31;5014469;28;20033;-70
2023/07/06 04:39:12;;;;;;;20.33;8.73;;;;;;;-144.73;100.00;54481.59;5033281;28;20160;-70
2023/07/06 04:41:38;;;;;;;18.13;9.05;;;;;;;-144.73;100.00;54481.59;5021594;28;20036;-70
2023/07/06 04:44:04;;;;;;;25.70;8.98;;;;;;;-144.73;100.00;54493.91;5032722;28;20118;-70
2023/07/06 04:46:29;;;;;;;21.88;8.75;;;;;;;-144.73;100.00;54477.47;5032194;28;20034;-70
2023/07/06 04:48:55;;;;;;;22.33;9.30;;;;;;;-144.73;100.00;54502.13;5030538;28;20025;-70
2023/07/06 04:51:20;;;;;;;24.42;8.77;;;;;;;-144.73;100.00;54485.69;5018572;28;20022;-70
2023/07/06 04:53:48;;;;;;;23.25;8.48;;;;;;;-144.73;100.00;54518.53;5030532;28;20021;-70
2023/07/06 04:56:14;;;;;;;19.70;8.35;;;;;;;-144.73;100.00;54481.59;5014224;28;20434;-70
2023/07/06 04:58:41;;;;;;;19.40;8.73;;;;;;;-144.73;100.00;54506.22;5032166;28;20083;-70
2023/07/06 05:01:07;;;;;;;19.13;7.90;;;;;;;-144.73;100.00;54495.97;5013912;28;20042;-70
2023/07/06 05:03:34;;;;;;;21.92;8.23;;;;;;;-144.73;100.00;54479.53;5029091;28;20536;-70
2023/07/06 05:06:02;;;;;;;21.40;7.90;;;;;;;-144.73;100.00;54477.47;5030811;28;20041;-70
2023/07/06 05:08:27;;;;;;;23.92;8.55;;;;;;;-144.73;100.00;54452.84;5030493;28;20532;-70
2023/07/06 05:10:53;;;;;;;17.13;7.50;;;;;;;-144.73;100.00;54493.91;5030195;28;20029;-70
2023/07/06 05:13:20;;;;;;;16.83;8.02;;;;;;;-144.73;100.00;54506.22;5014309;28;20029;-70
2023/07/06 05:15:48;;;;;;;20.05;7.85;;;;;;;-144.73;100.00;54465.16;5014535;28;20025;-69
2023/07/06 05:18:14;;;;;;;14.40;7.07;;;;;;;-144.73;100.00;54444.66;5012984;28;20052;-69
2023/07/06 05:20:40;;;;;;;17.65;7.25;;;;;;;-144.73;100.00;54485.69;5013960;28;20069;-71
2023/07/06 05:23:09;;;;;;;16.45;6.97;;;;;;;-144.73;100.00;54506.22;5012503;28;20033;-70
2023/07/06 05:25:36;;;;;;;16.85;6.85;;;;;;;-144.73;100.00;54489.81;5014454;28;20071;-71
2023/07/06 05:28:02;;;;;;;18.20;7.40;;;;;;;-144.73;100.00;54485.69;5019656;28;20029;-71
2023/07/06 05:30:28;;;;;;;22.50;7.43;;;;;;;-144.73;100.00;54473.38;5005822;28;20030;-71
2023/07/06 05:32:53;;;;;;;21.25;8.02;;;;;;;-144.73;100.00;54514.44;5030726;28;20021;-71
2023/07/06 05:35:19;;;;;;;22.23;7.68;;;;;;;-144.73;100.00;54469.28;5013332;28;20030;-71
2023/07/06 05:37:44;;;;;;;19.23;7.30;;;;;;;-144.73;100.00;54518.53;5013247;28;20042;-71
2023/07/06 05:40:10;;;;;;;25.02;7.20;;;;;;;-144.73;100.00;54481.59;5032651;28;20111;-71
2023/07/06 05:42:36;;;;;;;26.48;7.25;;;;;;;-144.73;100.00;54461.06;5013285;28;20057;-70
2023/07/06 05:45:01;;;;;;;14.98;7.53;;;;;;;-144.73;100.00;54440.53;5000288;28;20033;-70
2023/07/06 05:47:27;;;;;;;24.92;8.43;;;;;;;-144.73;100.00;54518.53;5013898;28;20021;-70
2023/07/06 05:49:53;;;;;;;19.15;6.78;;;;;;;-144.73;100.00;54506.22;5014571;28;20053;-70
2023/07/06 05:52:18;;;;;;;18.92;7.90;;;;;;;-144.73;100.00;54465.16;5030229;28;20024;-70
2023/07/06 05:54:43;;;;;;;12.10;6.55;;;;;;;-144.73;100.00;54489.81;5014227;28;20037;-70
2023/07/06 05:57:09;;;;;;;20.25;6.78;;;;;;;-144.73;100.00;54510.31;5025758;28;20017;-71
2023/07/06 05:59:36;;;;;;;16.20;6.97;;;;;;;-144.73;100.00;54498.00;4998079;28;20270;-71
2023/07/06 06:02:04;;;;;;;27.50;7.25;;;;;;;-144.73;100.00;54487.75;5042418;28;20025;-70
2023/07/06 06:04:30;;;;;;;20.80;7.18;;;;;;;-144.73;100.00;54510.31;5021045;28;20033;-70
2023/07/06 06:06:56;;;;;;;17.77;6.35;;;;;;;-144.73;100.00;54469.28;5007611;28;20456;-70
2023/07/06 06:09:25;;;;;;;15.73;6.68;;;;;;;-144.73;100.00;54518.53;5012854;28;20014;-71
2023/07/06 06:11:54;;;;;;;29.05;6.38;;;;;;;-144.73;100.00;54508.28;5013544;28;20017;-70
2023/07/06 06:14:20;;;;;;;26.15;6.72;;;;;;;-144.73;100.00;54461.06;5025850;28;20033;-70
2023/07/06 06:16:46;;;;;;;22.95;6.32;;;;;;;-144.73;100.00;54483.66;4997032;28;20045;-70
2023/07/06 06:19:11;;;;;;;17.80;6.90;;;;;;;-144.73;100.00;54456.97;5009544;28;20026;-71
2023/07/06 06:21:37;;;;;;;25.70;6.30;;;;;;;-144.73;100.00;54487.75;5030272;28;20034;-70
2023/07/06 06:24:03;;;;;;;13.20;6.10;;;;;;;-144.73;100.00;54452.84;5021219;28;20026;-70
2023/07/06 06:26:29;;;;;;;14.63;5.78;;;;;;;-144.73;100.00;54473.38;5008054;28;20045;-71
2023/07/06 06:28:57;;;;;;;16.17;5.60;;;;;;;-144.73;100.00;54493.91;4995651;28;20109;-71
2023/07/06 06:31:23;;;;;;;20.10;5.80;;;;;;;-144.73;100.00;54463.13;5010652;28;20129;-71
2023/07/06 06:33:49;;;;;;;28.00;6.47;;;;;;;-144.73;100.00;54448.75;5007190;28;20025;-71
2023/07/06 06:36:16;;;;;;;13.98;5.60;;;;;;;-144.73;100.00;54483.66;5022532;28;20121;-70
2023/07/06 06:38:42;;;;;;;12.07;4.78;;;;;;;-144.73;100.00;54502.13;5020475;28;20386;-69
2023/07/06 06:41:08;;;;;;;12.45;5.00;;;;;;;-144.73;100.00;54461.06;5018800;28;20037;-70
2023/07/06 06:43:41;;;;;;;13.93;5.80;;;;;;;-144.73;100.00;54489.81;5032297;28;20067;-70
2023/07/06 06:46:08;;;;;;;21.55;7.07;;;;;;;-144.73;100.00;54424.13;5030209;28;20033;-69
2023/07/06 06:48:34;;;;;;;9.65;5.22;;;;;;;-144.73;100.00;54526.75;5015477;28;20096;-70
2023/07/06 06:51:01;;;;;;;18.65;5.03;;;;;;;-144.73;100.00;54436.44;5015117;28;20108;-71
2023/07/06 06:53:27;;;;;;;18.73;4.70;;;;;;;-144.73;100.00;54485.69;5013002;28;20025;-71
2023/07/06 06:55:53;;;;;;;20.25;5.25;;;;;;;-144.73;100.00;54485.69;5011644;28;20112;-72
2023/07/06 06:58:24;;;;;;;16.70;4.85;;;;;;;-144.73;100.00;54452.84;5029033;28;20027;-71
2023/07/06 07:01:02;;;;;;;19.83;4.90;;;;;;;-144.73;100.00;54452.84;5031462;28;20052;-71
2023/07/06 07:03:28;;;;;;;15.18;5.05;;;;;;;-144.73;100.00;54465.16;5020778;28;20050;-71
2023/07/06 07:06:03;;;;;;;11.30;4.40;;;;;;;-144.73;100.00;54518.53;5028863;28;20494;-71
2023/07/06 07:08:29;;;;;;;17.52;4.88;;;;;;;-144.73;100.00;54452.84;5015793;28;20018;-71
2023/07/06 07:10:57;;;;;;;11.57;4.30;;;;;;;-144.73;100.00;54506.22;5012404;28;20025;-71
2023/07/06 07:13:27;;;;;;;13.15;4.47;;;;;;;-144.73;100.00;54469.28;5032765;28;20025;-70
2023/07/06 07:15:53;;;;;;;16.30;4.10;;;;;;;-144.73;100.00;54432.31;5014176;28;20033;-70
2023/07/06 07:18:21;;;;;;;13.57;3.50;;;;;;;-144.73;100.00;54448.75;5011186;28;20021;-70
2023/07/06 07:20:54;;;;;;;9.93;3.78;;;;;;;-144.73;99.12;54448.75;5018123;28;20104;-70
2023/07/06 07:23:23;;;;;;;11.52;3.60;;;;;;;-144.73;97.01;54471.31;5022454;28;20023;-70
2023/07/06 07:25:48;;;;;;;12.55;4.15;;;;;;;-144.73;95.04;54477.47;4997708;28;20030;-70
2023/07/06 07:28:17;;;;;;;13.88;3.42;;;;;;;-144.73;93.40;54440.53;5010572;28;20027;-71
2023/07/06 07:30:58;;;;;;;13.73;4.05;;;;;;;-144.73;91.96;54452.84;5013131;28;20033;-71
2023/07/06 07:33:27;;;;;;;6.28;2.90;;;;;;;-144.73;88.59;54415.91;5027167;28;20032;-71
2023/07/06 07:35:53;;;;;;;4.93;2.92;;;;;;;-144.73;91.00;54407.69;5009154;28;20088;-72
2023/07/06 07:38:19;;;;;;;10.50;3.20;;;;;;;-144.73;88.49;54387.19;5008677;28;20040;-72
2023/07/06 07:40:56;;;;;;;18.75;4.15;;;;;;;-144.73;84.30;54444.66;5013463;28;20060;-71
2023/07/06 07:43:27;;;;;;;15.75;3.45;;;;;;;-144.73;84.66;54426.16;5007625;28;20022;-71
2023/07/06 07:46:00;;;;;;;7.00;2.80;;;;;;;-144.73;84.31;54378.97;5029273;28;20132;-71
2023/07/06 07:48:27;;;;;;;9.80;2.70;;;;;;;-144.73;85.46;54415.91;5029273;28;20030;-72
2023/07/06 07:50:56;;;;;;;10.68;3.03;;;;;;;-144.73;81.24;54417.97;5028006;28;20030;-71
2023/07/06 07:53:26;;;;;;;6.95;3.47;;;;;;;-144.73;80.78;54428.22;5011966;28;20017;-71
2023/07/06 07:55:53;;;;;;;8.05;3.05;;;;;;;-144.73;81.56;54413.84;5028813;28;20045;-70
2023/07/06 07:58:19;;;;;;;6.78;3.10;;;;;;;-144.73;76.66;54420.00;5007426;28;20081;-71
2023/07/06 08:00:49;;;;;;;9.55;2.88;;;;;;;-144.73;76.76;54440.53;5017193;28;20116;-70
2023/07/06 08:03:15;;;;;;;9.88;2.67;;;;;;;-144.73;78.95;54383.06;5028910;28;20071;-71
2023/07/06 08:05:40;;;;;;;6.15;2.50;;;;;;;-144.73;77.39;54391.28;5010593;28;20116;-70
2023/07/06 08:08:06;;;;;;;12.13;2.80;;;;;;;-144.73;73.16;54395.38;5013791;28;20026;-70
2023/07/06 08:10:36;;;;;;;6.22;2.45;;;;;;;-144.73;69.72;54420.00;5027494;28;20033;-71
2023/07/06 08:13:03;;;;;;;9.52;3.08;;;;;;;-144.73;69.11;54420.00;5015182;28;20041;-70
2023/07/06 08:15:29;;;;;;;8.02;2.25;;;;;;;-144.73;67.44;54407.69;5032782;28;20026;-71
2023/07/06 08:17:57;;;;;;;6.25;2.33;;;;;;;-144.73;67.24;54448.75;5014983;28;20026;-71
2023/07/06 08:20:22;;;;;;;9.38;2.28;;;;;;;-144.73;68.97;54407.69;5031469;28;20140;-70
2023/07/06 08:22:48;;;;;;;6.25;2.60;;;;;;;-144.73;69.26;54378.97;5012958;28;20046;-70
2023/07/06 08:25:13;;;;;;;6.45;2.33;;;;;;;-144.73;69.16;54442.59;5031966;28;20032;-70
2023/07/06 08:27:39;;;;;;;4.70;2.10;;;;;;;-144.73;67.17;54378.97;5014074;28;20475;-71
2023/07/06 08:30:06;;;;;;;7.35;2.45;;;;;;;-144.73;66.24;54391.28;5018593;28;20088;-70
2023/07/06 08:32:33;;;;;;;5.47;1.80;;;;;;;-144.73;67.30;54424.13;5016244;28;20033;-71
2023/07/06 08:35:01;;;;;;;6.95;2.58;;;;;;;-144.73;64.46;54411.81;5011844;28;20039;-71
2023/07/06 08:37:26;;;;;;;10.95;2.38;;;;;;;-144.73;65.25;54407.69;5014514;28;20087;-71
2023/07/06 08:39:52;;;;;;;9.20;2.28;;;;;;;-144.73;63.14;54391.28;5030925;28;20038;-71
2023/07/06 08:42:18;;;;;;;12.25;2.40;;;;;;;-144.73;65.00;54420.00;5011241;28;20089;-71
2023/07/06 08:44:51;;;;;;;8.50;2.33;;;;;;;-144.73;65.34;54391.28;5029470;28;20094;-71
2023/07/06 08:47:18;;;;;;;11.07;2.33;;;;;;;-144.73;66.96;54407.69;5030516;28;20021;-71
2023/07/06 08:49:43;;;;;;;3.65;1.90;;;;;;;-144.73;65.10;54395.38;5013301;28;20040;-71
2023/07/06 08:52:12;;;;;;;8.82;2.50;;;;;;;-144.73;65.32;54411.81;5014204;28;20013;-71
2023/07/06 08:54:39;;;;;;;9.07;2.83;;;;;;;-144.73;64.73;54362.53;5022107;28;20509;-69
2023/07/06 08:57:22;;;;;;;9.70;2.60;;;;;;;-144.73;63.57;54442.59;5031517;28;20001;-70
2023/07/06 08:59:49;;;;;;;6.78;2.45;;;;;;;-144.73;65.85;54374.84;5029628;28;20033;-70
2023/07/06 09:02:26;;;;;;;8.63;2.20;;;;;;;-144.73;63.58;54444.66;5030319;28;20025;-71
2023/07/06 09:04:54;;;;;;;9.85;2.58;;;;;;;-144.73;62.63;54407.69;5030256;28;20059;-70
2023/07/06 09:07:34;;;;;;;9.25;2.17;;;;;;;-144.73;61.93;54391.28;5013594;28;20037;-70
2023/07/06 09:10:00;;;;;;;4.55;1.77;;;;;;;-144.73;61.93;54407.69;5029712;28;20022;-71
2023/07/06 09:12:36;;;;;;;10.38;1.98;;;;;;;-144.73;60.55;54436.44;5029786;28;20044;-71
2023/07/06 09:15:03;;;;;;;5.10;2.30;;;;;;;-144.73;61.96;54385.13;5030128;28;20036;-71
2023/07/06 09:17:29;;;;;;;7.28;2.20;;;;;;;-144.73;60.95;54411.81;5014086;28;20021;-70
2023/07/06 09:19:55;;;;;;;6.07;1.92;;;;;;;-144.73;63.26;54354.34;5027873;28;20041;-71
2023/07/06 09:22:22;;;;;;;8.07;2.60;;;;;;;-144.73;62.63;54387.19;5013639;28;20017;-71
2023/07/06 09:24:49;;;;;;;7.15;2.22;;;;;;;-144.73;62.46;54395.38;5012674;28;20109;-70
2023/07/06 09:27:33;;;;;;;5.97;2.28;;;;;;;-144.73;59.84;54395.38;5031122;28;20021;-71
2023/07/06 09:30:05;;;;;;;11.18;2.40;;;;;;;-144.73;58.57;54391.28;5012159;28;20030;-71
2023/07/06 09:32:32;;;;;;;8.00;2.03;;;;;;;-144.73;56.43;54385.13;5030646;28;20029;-71
2023/07/06 09:35:06;;;;;;;2.95;1.60;;;;;;;-144.73;56.69;54407.69;5012671;28;20129;-71
2023/07/06 09:37:31;;;;;;;8.77;2.20;;;;;;;-144.73;54.87;54383.06;5030071;28;20022;-71
2023/07/06 09:40:09;;;;;;;9.00;2.38;;;;;;;-144.73;55.87;54368.69;5027969;28;20033;-70
2023/07/06 09:42:34;;;;;;;3.75;1.92;;;;;;;-144.73;55.55;54422.06;5029155;28;20368;-71
2023/07/06 09:45:00;;;;;;;3.95;2.30;;;;;;;-144.73;54.92;54360.50;5029828;28;20054;-71
2023/07/06 09:47:29;;;;;;;3.33;1.75;;;;;;;-144.73;57.24;54383.06;5030687;28;20028;-71
2023/07/06 09:49:59;;;;;;;8.63;2.40;;;;;;;-144.73;55.92;54370.75;5029947;28;20128;-70
2023/07/06 09:52:26;;;;;;;6.55;2.10;;;;;;;-144.73;57.91;54374.84;5029272;28;20480;-70
2023/07/06 09:55:15;;;;;;;4.38;2.05;;;;;;;-144.73;54.71;54432.31;5032531;28;20037;-70
2023/07/06 09:57:40;;;;;;;3.35;1.65;;;;;;;-144.73;55.24;54415.91;5008329;28;20026;-72
2023/07/06 10:00:19;;;;;;;6.00;1.80;;;;;;;-144.73;54.66;54358.44;5019581;28;20124;-71
2023/07/06 10:02:57;;;;;;;2.90;1.65;;;;;;;-144.73;52.42;54358.44;5020857;28;20039;-71
2023/07/06 10:05:45;;;;;;;3.10;1.60;;;;;;;-144.73;50.47;54374.84;5025923;28;20041;-71
2023/07/06 10:08:28;;;;;;;5.95;1.88;;;;;;;-144.73;52.13;54358.44;5029525;28;20125;-71
2023/07/06 10:11:14;;;;;;;6.13;1.50;;;;;;;-144.73;49.38;54387.19;5031800;28;20033;-71
2023/07/06 10:13:56;;;;;;;2.97;1.83;;;;;;;-144.73;52.47;54391.28;5026744;28;20060;-70
2023/07/06 10:16:37;;;;;;;4.32;2.05;;;;;;;-144.73;53.54;54391.28;5024818;28;20067;-71
2023/07/06 10:19:29;;;;;;;3.78;1.77;;;;;;;-144.73;51.72;54325.59;5029812;28;20036;-70
2023/07/06 10:21:54;;;;;;;;;;;;;;;-144.73;50.24;54383.06;5011627;28;20414;-70
2023/07/06 10:24:34;;;;;;;4.82;2.10;;;;;;;-144.73;49.45;54391.28;5020873;28;19916;-70
2023/07/06 10:27:03;;;;;;;7.72;2.08;;;;;;;-144.73;49.10;54346.13;5012243;28;20120;-71
2023/07/06 10:29:46;;;;;;;7.18;2.13;;;;;;;-144.73;50.04;54372.81;5027103;28;20017;-70
2023/07/06 10:32:17;;;;;;;7.82;2.35;;;;;;;-144.73;52.07;54395.38;5011777;28;20021;-71
2023/07/06 10:34:54;;;;;;;5.90;2.50;;;;;;;-144.73;53.92;54444.66;5025470;28;20220;-71
2023/07/06 10:37:24;;;;;;;7.35;2.40;;;;;;;-144.73;54.63;54407.69;5011821;28;20026;-71
2023/07/06 10:40:11;;;;;;;6.65;2.42;;;;;;;-144.73;53.70;54438.50;5029234;28;20038;-71
2023/07/06 10:42:41;;;;;;;5.18;2.40;;;;;;;-144.73;53.99;54366.66;5009088;28;20091;-71
2023/07/06 10:45:32;;;;;;;8.13;2.97;;;;;;;-144.73;54.75;54407.69;5027737;28;20056;-71
2023/07/06 10:48:13;;;;;;;6.53;2.33;;;;;;;-144.73;52.99;54411.81;5028801;28;20323;-71
2023/07/06 10:50:49;;;;;;;5.30;2.20;;;;;;;-144.73;52.34;54407.69;5010205;28;20107;-71
2023/07/06 10:53:36;;;;;;;5.13;2.38;;;;;;;-144.73;52.13;54399.50;5027851;28;20100;-71
2023/07/06 10:56:01;;;;;;;7.20;2.55;;;;;;;-144.73;50.80;54424.13;5017901;28;20033;-71
2023/07/06 10:58:34;;;;;;;7.25;2.00;;;;;;;-144.73;53.12;54407.69;5030452;28;20029;-71
2023/07/06 11:01:07;;;;;;;7.53;2.30;;;;;;;-144.73;53.45;54424.13;5027806;28;20034;-70
2023/07/06 11:03:32;;;;;;;4.60;2.40;;;;;;;-144.73;52.49;54411.81;5028982;28;20028;-70
2023/07/06 11:06:07;;;;;;;4.88;2.00;;;;;;;-144.73;52.12;54383.06;5028926;28;20034;-70
2023/07/06 11:09:09;;;;;;;5.78;2.05;;;;;;;-144.73;48.60;54342.03;5030061;28;20029;-70
2023/07/06 11:11:38;;;;;;;7.70;2.25;;;;;;;-144.73;49.15;54354.34;5028876;28;20087;-70
2023/07/06 11:14:34;;;;;;;4.97;1.80;;;;;;;-144.73;48.40;54387.19;5028481;28;20068;-70
2023/07/06 11:17:27;;;;;;;6.47;2.55;;;;;;;-144.73;46.76;54309.19;5030758;28;20041;-71